Time;durP1;ratioP1;P1;durP2;ratioP2;P2;SDS_P1;SDS_P2;PMS_P1;PMS_P2;Temp;Humidity;BMP_temperature;BMP_pressure;BME280_temperature;BME280_humidity;BME280_pressure;Samples;Min_cycle;Max_cycle;Signal;HPM_P1;HPM_P2
2022/05/06 00:01:35;;;;;;;42.17;18.10;;;;;;;;;;5042960;28;20045;-60
2022/05/06 00:04:03;;;;;;;68.43;24.87;;;;;;;;;;5028884;28;20057;-59
2022/05/06 00:06:30;;;;;;;61.87;21.97;;;;;;;;;;5029207;28;20041;-59
2022/05/06 00:08:56;;;;;;;56.20;23.83;;;;;;;;;;5029658;28;20057;-59
2022/05/06 00:11:22;;;;;;;52.50;24.67;;;;;;;;;;5061556;28;20052;-59
2022/05/06 00:13:52;;;;;;;40.60;20.80;;;;;;;;;;5049224;28;20498;-59
2022/05/06 00:16:18;;;;;;;53.77;23.17;;;;;;;;;;5048568;28;20053;-59
2022/05/06 00:18:44;;;;;;;57.27;24.43;;;;;;;;;;5047559;28;20557;-59
2022/05/06 00:21:10;;;;;;;46.27;22.77;;;;;;;;;;5048333;28;20044;-59
2022/05/06 00:23:36;;;;;;;72.43;27.53;;;;;;;;;;5046470;28;20076;-60
2022/05/06 00:26:03;;;;;;;73.80;27.43;;;;;;;;;;5049330;28;20045;-59
2022/05/06 00:28:30;;;;;;;39.60;16.33;;;;;;;;;;5034152;28;20456;-59
2022/05/06 00:30:56;;;;;;;62.83;22.93;;;;;;;;;;5034129;28;20423;-59
2022/05/06 00:33:24;;;;;;;32.17;15.53;;;;;;;;;;5048388;28;20415;-59
2022/05/06 00:35:53;;;;;;;50.73;19.80;;;;;;;;;;5048031;28;20056;-59
2022/05/06 00:38:19;;;;;;;45.70;17.47;;;;;;;;;;5047114;28;20094;-59
2022/05/06 00:40:45;;;;;;;34.70;14.70;;;;;;;;;;5048352;28;20048;-59
2022/05/06 00:43:12;;;;;;;36.50;13.17;;;;;;;;;;5048251;28;20407;-60
2022/05/06 00:45:56;;;;;;;26.90;12.00;;;;;;;;;;5047802;28;20597;-59
2022/05/06 00:48:26;;;;;;;24.93;11.80;;;;;;;;;;5050301;28;20043;-59
2022/05/06 00:50:52;;;;;;;21.60;9.77;;;;;;;;;;5052356;28;20037;-59
2022/05/06 00:53:18;;;;;;;22.63;10.83;;;;;;;;;;5052176;28;20215;-59
2022/05/06 00:55:45;;;;;;;33.20;13.53;;;;;;;;;;5052594;28;20041;-59
2022/05/06 00:58:11;;;;;;;39.33;17.50;;;;;;;;;;5051740;28;20032;-59
2022/05/06 01:00:37;;;;;;;47.80;22.57;;;;;;;;;;5051617;28;20056;-59
2022/05/06 01:03:03;;;;;;;55.40;24.23;;;;;;;;;;5051246;28;20040;-59
2022/05/06 01:05:30;;;;;;;64.63;22.83;;;;;;;;;;5051986;28;20048;-59
2022/05/06 01:07:58;;;;;;;63.40;26.70;;;;;;;;;;5046009;28;20046;-59
2022/05/06 01:10:24;;;;;;;78.70;29.93;;;;;;;;;;5050060;28;20049;-59
2022/05/06 01:12:50;;;;;;;73.40;26.77;;;;;;;;;;5051789;28;20060;-59
2022/05/06 01:15:27;;;;;;;72.77;28.30;;;;;;;;;;5052390;28;20503;-59
2022/05/06 01:17:55;;;;;;;78.27;29.03;;;;;;;;;;5051506;28;20953;-60
2022/05/06 01:20:22;;;;;;;70.20;29.03;;;;;;;;;;5050668;28;20131;-59
2022/05/06 01:22:49;;;;;;;64.27;25.40;;;;;;;;;;5050233;28;20045;-60
2022/05/06 01:25:15;;;;;;;81.33;20.07;;;;;;;;;;5052514;28;20045;-59
2022/05/06 01:27:45;;;;;;;62.50;24.43;;;;;;;;;;5051504;28;20091;-59
2022/05/06 01:30:13;;;;;;;56.90;21.60;;;;;;;;;;5052014;28;20057;-59
2022/05/06 01:32:40;;;;;;;44.10;17.70;;;;;;;;;;5051268;28;20470;-59
2022/05/06 01:35:06;;;;;;;63.43;22.87;;;;;;;;;;5051539;28;20052;-59
2022/05/06 01:37:34;;;;;;;81.40;29.03;;;;;;;;;;5046433;28;20087;-59
2022/05/06 01:40:02;;;;;;;83.17;31.03;;;;;;;;;;5031938;28;20500;-59
2022/05/06 01:42:31;;;;;;;68.83;27.83;;;;;;;;;;5034700;28;20049;-59
2022/05/06 01:44:57;;;;;;;76.17;28.17;;;;;;;;;;5035623;28;20072;-59
2022/05/06 01:47:26;;;;;;;85.80;29.67;;;;;;;;;;5051187;28;20124;-59
2022/05/06 01:49:56;;;;;;;77.90;29.83;;;;;;;;;;5050508;28;20105;-59
2022/05/06 01:52:25;;;;;;;82.80;31.07;;;;;;;;;;5050998;28;20052;-59
2022/05/06 01:54:51;;;;;;;83.23;31.37;;;;;;;;;;5051184;28;20053;-59
2022/05/06 01:57:17;;;;;;;93.40;31.50;;;;;;;;;;5050813;28;20052;-59
2022/05/06 01:59:43;;;;;;;93.90;34.07;;;;;;;;;;5048662;28;20431;-59
2022/05/06 02:02:09;;;;;;;80.33;30.07;;;;;;;;;;5050687;28;20044;-59
2022/05/06 02:07:19;;;;;;;83.33;31.10;;;;;;;;;;5049481;28;20060;-59
2022/05/06 02:09:45;;;;;;;83.20;32.13;;;;;;;;;;5040803;28;20057;-59
2022/05/06 02:12:11;;;;;;;93.07;33.87;;;;;;;;;;5040575;28;20142;-59
2022/05/06 02:14:37;;;;;;;91.53;32.57;;;;;;;;;;5046606;28;20052;-59
2022/05/06 02:17:03;;;;;;;105.57;35.00;;;;;;;;;;5050763;28;20045;-59
2022/05/06 02:19:30;;;;;;;86.93;32.63;;;;;;;;;;5048003;28;20052;-59
2022/05/06 02:21:56;;;;;;;95.33;35.40;;;;;;;;;;5049743;28;20045;-59
2022/05/06 02:24:22;;;;;;;89.17;31.93;;;;;;;;;;5050262;28;20816;-59
2022/05/06 02:26:48;;;;;;;99.30;35.13;;;;;;;;;;5050237;28;20037;-59
2022/05/06 02:29:14;;;;;;;101.93;35.00;;;;;;;;;;5046352;28;20073;-59
2022/05/06 02:34:24;;;;;;;78.30;31.13;;;;;;;;;;5030365;28;20057;-59
2022/05/06 02:36:50;;;;;;;75.70;28.33;;;;;;;;;;5030558;28;20099;-59
2022/05/06 02:39:16;;;;;;;67.53;25.43;;;;;;;;;;5041332;28;20112;-59
2022/05/06 02:41:42;;;;;;;85.23;30.37;;;;;;;;;;5040887;28;20114;-59
2022/05/06 02:44:08;;;;;;;83.13;32.53;;;;;;;;;;5038024;28;20033;-59
2022/05/06 02:46:35;;;;;;;79.93;29.97;;;;;;;;;;5034627;28;20156;-59
2022/05/06 02:49:01;;;;;;;92.10;33.47;;;;;;;;;;5038102;28;20049;-59
2022/05/06 02:51:28;;;;;;;97.47;32.67;;;;;;;;;;5038515;28;20048;-59
2022/05/06 02:53:55;;;;;;;98.50;31.97;;;;;;;;;;5037348;28;20119;-59
2022/05/06 02:56:21;;;;;;;77.20;27.37;;;;;;;;;;5039275;28;20053;-59
2022/05/06 02:58:47;;;;;;;84.87;27.17;;;;;;;;;;5038446;28;20483;-59
2022/05/06 03:01:13;;;;;;;113.03;33.00;;;;;;;;;;5042139;28;20174;-59
2022/05/06 03:03:39;;;;;;;105.10;34.33;;;;;;;;;;5038226;28;20040;-59
2022/05/06 03:06:05;;;;;;;75.57;29.47;;;;;;;;;;5038309;28;20049;-59
2022/05/06 03:08:31;;;;;;;98.40;34.60;;;;;;;;;;5038078;28;20049;-59
2022/05/06 03:10:59;;;;;;;93.83;32.47;;;;;;;;;;5041726;28;20033;-59
2022/05/06 03:13:25;;;;;;;91.83;32.17;;;;;;;;;;5035606;28;20076;-59
2022/05/06 03:15:52;;;;;;;95.13;32.07;;;;;;;;;;5039191;28;20081;-59
2022/05/06 03:18:18;;;;;;;104.83;36.50;;;;;;;;;;5038474;28;20052;-59
2022/05/06 03:20:44;;;;;;;121.87;39.00;;;;;;;;;;5037698;28;20033;-59
2022/05/06 03:23:10;;;;;;;89.40;33.57;;;;;;;;;;5038635;28;20048;-60
2022/05/06 03:25:36;;;;;;;73.47;30.83;;;;;;;;;;5038601;28;20423;-59
2022/05/06 03:28:07;;;;;;;78.53;30.93;;;;;;;;;;5049538;28;20049;-60
2022/05/06 03:30:37;;;;;;;72.73;31.27;;;;;;;;;;5041693;28;20068;-60
2022/05/06 03:33:03;;;;;;;80.47;30.83;;;;;;;;;;5042670;28;20142;-60
2022/05/06 03:35:30;;;;;;;76.43;31.07;;;;;;;;;;5045447;28;20136;-59
2022/05/06 03:37:57;;;;;;;98.60;34.00;;;;;;;;;;5049482;28;20056;-60
2022/05/06 03:40:23;;;;;;;89.37;32.80;;;;;;;;;;5049707;28;20124;-60
2022/05/06 03:42:49;;;;;;;80.93;31.57;;;;;;;;;;5046415;28;20091;-59
2022/05/06 03:45:15;;;;;;;100.53;34.53;;;;;;;;;;5046344;28;20155;-59
2022/05/06 03:47:41;;;;;;;116.97;37.53;;;;;;;;;;5038132;28;20056;-59
2022/05/06 03:52:52;;;;;;;103.60;35.50;;;;;;;;;;5030212;28;20046;-60
2022/05/06 03:55:18;;;;;;;109.17;36.03;;;;;;;;;;5048759;28;20041;-59
2022/05/06 03:57:45;;;;;;;121.20;38.80;;;;;;;;;;5042829;28;20689;-59
2022/05/06 04:00:11;;;;;;;139.80;44.17;;;;;;;;;;5047584;28;20171;-59
2022/05/06 04:02:37;;;;;;;85.53;34.93;;;;;;;;;;5038928;28;20413;-60
2022/05/06 04:05:04;;;;;;;81.90;35.07;;;;;;;;;;5048752;28;20136;-59
2022/05/06 04:07:30;;;;;;;79.77;30.63;;;;;;;;;;5048056;28;20135;-59
2022/05/06 04:09:56;;;;;;;77.07;30.50;;;;;;;;;;5047086;28;20208;-59
2022/05/06 04:12:23;;;;;;;99.87;34.03;;;;;;;;;;5047524;28;20088;-59
2022/05/06 04:14:49;;;;;;;77.63;29.00;;;;;;;;;;5032903;28;20128;-60
2022/05/06 04:17:16;;;;;;;90.40;31.77;;;;;;;;;;5028983;28;20050;-59
2022/05/06 04:23:28;;;;;;;82.57;29.73;;;;;;;;;;5043186;28;20056;-60
2022/05/06 04:25:14;;;;;;;69.10;25.87;;;;;;;;;;5030671;28;20046;-60
2022/05/06 04:27:41;;;;;;;69.57;24.67;;;;;;;;;;5046132;28;20072;-60
2022/05/06 04:30:07;;;;;;;58.13;23.13;;;;;;;;;;5047669;28;20049;-60
2022/05/06 04:32:33;;;;;;;77.07;25.00;;;;;;;;;;5047175;28;20041;-60
2022/05/06 04:35:00;;;;;;;53.97;23.37;;;;;;;;;;5048080;28;20049;-60
2022/05/06 04:37:26;;;;;;;110.03;34.10;;;;;;;;;;5046645;28;20044;-59
2022/05/06 04:39:53;;;;;;;106.13;32.13;;;;;;;;;;5048148;28;20040;-60
2022/05/06 04:42:19;;;;;;;118.13;35.53;;;;;;;;;;5047082;28;20807;-60
2022/05/06 04:44:45;;;;;;;470.33;82.13;;;;;;;;;;5039055;28;20091;-60
2022/05/06 04:47:11;;;;;;;528.20;93.83;;;;;;;;;;5048034;28;20167;-60
2022/05/06 04:49:37;;;;;;;707.47;117.57;;;;;;;;;;5047567;28;20048;-60
2022/05/06 04:52:03;;;;;;;346.67;71.80;;;;;;;;;;5047627;28;20102;-60
2022/05/06 04:54:29;;;;;;;671.20;107.57;;;;;;;;;;5048051;28;20413;-60
2022/05/06 04:56:55;;;;;;;548.20;86.50;;;;;;;;;;5047201;28;20822;-60
2022/05/06 04:59:22;;;;;;;447.90;87.43;;;;;;;;;;5047510;28;20041;-60
2022/05/06 05:01:48;;;;;;;782.37;114.47;;;;;;;;;;5039437;28;20132;-60
2022/05/06 05:04:14;;;;;;;685.93;103.50;;;;;;;;;;5046471;28;20136;-60
2022/05/06 05:06:40;;;;;;;471.57;75.33;;;;;;;;;;5046698;28;20053;-60
2022/05/06 05:09:07;;;;;;;561.63;86.47;;;;;;;;;;5048023;28;20047;-60
2022/05/06 05:11:34;;;;;;;641.27;94.03;;;;;;;;;;5047203;28;20056;-60
2022/05/06 05:14:02;;;;;;;972.40;122.87;;;;;;;;;;5047203;28;20049;-60
2022/05/06 05:16:29;;;;;;;770.40;107.83;;;;;;;;;;5048079;28;20124;-60
2022/05/06 05:18:55;;;;;;;674.97;104.53;;;;;;;;;;5047534;28;20537;-61
2022/05/06 05:21:21;;;;;;;374.50;58.40;;;;;;;;;;5046943;28;20049;-61
2022/05/06 05:23:47;;;;;;;566.80;78.37;;;;;;;;;;5047102;28;20033;-61
2022/05/06 05:26:13;;;;;;;507.00;74.83;;;;;;;;;;5047375;28;20048;-61
2022/05/06 05:28:39;;;;;;;610.30;80.53;;;;;;;;;;5044015;28;20577;-61
2022/05/06 05:31:05;;;;;;;569.87;76.97;;;;;;;;;;5038756;28;20069;-61
2022/05/06 05:33:31;;;;;;;490.53;69.90;;;;;;;;;;5039450;28;20415;-61
2022/05/06 05:35:57;;;;;;;516.70;66.33;;;;;;;;;;5043116;28;20040;-61
2022/05/06 05:38:23;;;;;;;488.20;62.47;;;;;;;;;;5042180;28;21481;-61
2022/05/06 05:40:49;;;;;;;553.03;82.23;;;;;;;;;;5044514;28;20049;-61
2022/05/06 05:48:45;;;;;;;421.17;60.03;;;;;;;;;;5042429;28;20045;-61
2022/05/06 05:51:11;;;;;;;296.57;48.53;;;;;;;;;;5044829;28;20127;-61
2022/05/06 05:53:37;;;;;;;385.10;56.73;;;;;;;;;;5038193;28;20040;-62
2022/05/06 05:56:03;;;;;;;503.13;68.67;;;;;;;;;;5040627;28;20187;-62
2022/05/06 05:58:29;;;;;;;381.93;58.77;;;;;;;;;;5045126;28;20040;-62
2022/05/06 06:00:55;;;;;;;443.57;65.77;;;;;;;;;;5048739;28;20405;-62
2022/05/06 06:03:21;;;;;;;426.00;66.30;;;;;;;;;;5044861;28;20045;-62
2022/05/06 06:05:47;;;;;;;290.00;50.57;;;;;;;;;;5044641;28;20053;-62
2022/05/06 06:08:13;;;;;;;274.57;53.17;;;;;;;;;;5044420;28;20044;-62
2022/05/06 06:10:39;;;;;;;373.83;62.13;;;;;;;;;;5050714;28;20106;-62
2022/05/06 06:13:05;;;;;;;371.17;62.47;;;;;;;;;;5048833;28;20049;-62
2022/05/06 06:15:32;;;;;;;526.77;77.23;;;;;;;;;;5035462;28;20045;-62
2022/05/06 06:17:58;;;;;;;263.33;53.50;;;;;;;;;;5040415;28;20037;-62
2022/05/06 06:20:26;;;;;;;449.33;66.20;;;;;;;;;;5042552;28;20045;-61
2022/05/06 06:22:52;;;;;;;435.63;73.50;;;;;;;;;;5039929;28;20048;-61
2022/05/06 06:25:18;;;;;;;326.80;62.17;;;;;;;;;;5040866;28;20052;-61
2022/05/06 06:27:44;;;;;;;312.27;54.13;;;;;;;;;;5037465;28;20045;-62
2022/05/06 06:30:11;;;;;;;426.67;69.43;;;;;;;;;;5044747;28;20052;-62
2022/05/06 06:32:37;;;;;;;261.77;56.77;;;;;;;;;;5049560;28;20479;-62
2022/05/06 06:35:03;;;;;;;464.37;72.40;;;;;;;;;;5040114;28;20049;-61
2022/05/06 06:37:32;;;;;;;286.73;60.83;;;;;;;;;;5049704;28;20051;-62
2022/05/06 06:39:58;;;;;;;282.60;56.00;;;;;;;;;;5048793;28;20130;-62
2022/05/06 06:42:25;;;;;;;335.53;59.90;;;;;;;;;;5048014;28;20086;-61
2022/05/06 06:44:51;;;;;;;331.30;60.37;;;;;;;;;;5031240;28;20037;-61
2022/05/06 06:47:17;;;;;;;467.03;75.27;;;;;;;;;;5037833;28;20122;-61
2022/05/06 06:49:45;;;;;;;336.90;67.20;;;;;;;;;;5040311;28;20048;-62
2022/05/06 06:52:13;;;;;;;342.57;65.37;;;;;;;;;;5042554;28;20055;-61
2022/05/06 06:54:39;;;;;;;309.47;65.13;;;;;;;;;;5048056;28;20052;-61
2022/05/06 06:57:05;;;;;;;165.37;50.53;;;;;;;;;;5047953;28;20426;-61
2022/05/06 06:59:31;;;;;;;141.40;46.37;;;;;;;;;;5069764;28;20055;-61
2022/05/06 07:01:57;;;;;;;166.87;46.43;;;;;;;;;;5061799;28;20041;-61
2022/05/06 07:04:24;;;;;;;124.00;42.53;;;;;;;;;;5044583;28;20045;-61
2022/05/06 07:12:20;;;;;;;140.07;43.43;;;;;;;;;;5044217;28;20098;-61
2022/05/06 07:14:46;;;;;;;175.93;47.70;;;;;;;;;;5043762;28;20434;-62
2022/05/06 07:17:13;;;;;;;133.60;42.47;;;;;;;;;;5043950;28;20037;-61
2022/05/06 07:19:39;;;;;;;128.67;39.93;;;;;;;;;;5044923;28;20052;-61
2022/05/06 07:22:05;;;;;;;96.80;35.77;;;;;;;;;;5043054;28;20051;-61
2022/05/06 07:24:31;;;;;;;77.80;33.03;;;;;;;;;;5045324;28;20037;-61
2022/05/06 07:26:57;;;;;;;49.60;24.23;;;;;;;;;;5044204;28;20033;-61
2022/05/06 07:29:23;;;;;;;59.27;25.30;;;;;;;;;;5047865;28;20490;-61
2022/05/06 07:31:49;;;;;;;63.77;28.17;;;;;;;;;;5063217;28;20091;-61
2022/05/06 07:34:15;;;;;;;66.93;28.07;;;;;;;;;;5048944;28;20088;-61
2022/05/06 07:36:42;;;;;;;59.23;25.90;;;;;;;;;;5043591;28;20066;-61
2022/05/06 07:39:09;;;;;;;56.97;25.53;;;;;;;;;;5029573;28;20037;-61
2022/05/06 07:41:35;;;;;;;58.17;25.97;;;;;;;;;;5043146;28;20053;-61
2022/05/06 07:44:01;;;;;;;50.00;25.23;;;;;;;;;;5047983;28;20095;-61
2022/05/06 07:46:27;;;;;;;54.60;26.17;;;;;;;;;;5043898;28;20041;-61
2022/05/06 07:48:53;;;;;;;54.10;26.20;;;;;;;;;;5048633;28;20129;-61
2022/05/06 07:51:19;;;;;;;44.60;22.97;;;;;;;;;;5049050;28;20835;-61
2022/05/06 07:53:45;;;;;;;43.67;24.10;;;;;;;;;;5048212;28;20080;-61
2022/05/06 07:56:11;;;;;;;44.87;25.10;;;;;;;;;;5048413;28;20084;-61
2022/05/06 07:58:38;;;;;;;35.00;21.10;;;;;;;;;;5047919;28;20068;-61
2022/05/06 08:01:05;;;;;;;32.67;19.20;;;;;;;;;;5030207;28;20498;-61
2022/05/06 08:06:16;;;;;;;26.47;16.37;;;;;;;;;;5048684;28;20080;-60
2022/05/06 08:08:42;;;;;;;26.37;15.97;;;;;;;;;;5048787;28;20041;-61
2022/05/06 08:11:08;;;;;;;23.07;13.90;;;;;;;;;;5047143;28;20041;-60
2022/05/06 08:13:34;;;;;;;21.87;14.53;;;;;;;;;;5048853;28;20063;-60
2022/05/06 08:16:00;;;;;;;19.10;13.67;;;;;;;;;;5047967;28;20410;-61
2022/05/06 08:18:27;;;;;;;16.63;12.20;;;;;;;;;;5047941;28;20503;-61
2022/05/06 08:20:54;;;;;;;18.07;13.67;;;;;;;;;;5047752;28;20472;-61
2022/05/06 08:23:21;;;;;;;16.77;13.00;;;;;;;;;;5046855;28;20048;-61
2022/05/06 08:25:47;;;;;;;15.60;11.97;;;;;;;;;;5048493;28;20045;-61
2022/05/06 08:28:14;;;;;;;16.60;12.17;;;;;;;;;;5047656;28;20087;-61
2022/05/06 08:30:40;;;;;;;15.47;12.43;;;;;;;;;;5046889;28;20045;-60
2022/05/06 08:33:06;;;;;;;13.17;11.07;;;;;;;;;;5046666;28;20049;-60
2022/05/06 08:35:32;;;;;;;13.73;10.10;;;;;;;;;;5047477;28;20051;-60
2022/05/06 08:37:58;;;;;;;12.53;9.93;;;;;;;;;;5047611;28;20049;-61
2022/05/06 08:40:26;;;;;;;10.47;8.97;;;;;;;;;;5047361;28;20084;-61
2022/05/06 08:42:53;;;;;;;11.80;9.20;;;;;;;;;;5047987;28;20053;-60
2022/05/06 08:50:53;;;;;;;11.10;8.43;;;;;;;;;;5046114;28;20049;-61
2022/05/06 08:53:23;;;;;;;10.80;8.87;;;;;;;;;;5048506;28;20418;-60
2022/05/06 08:55:50;;;;;;;10.03;8.67;;;;;;;;;;5047341;28;20484;-61
2022/05/06 08:58:20;;;;;;;8.93;8.03;;;;;;;;;;5047630;28;20037;-61
2022/05/06 09:00:46;;;;;;;9.33;8.43;;;;;;;;;;5047435;28;20052;-61
2022/05/06 09:03:15;;;;;;;8.40;7.50;;;;;;;;;;5047217;28;20494;-61
2022/05/06 09:05:51;;;;;;;8.77;7.87;;;;;;;;;;5047598;28;20045;-61
2022/05/06 09:08:18;;;;;;;9.27;8.30;;;;;;;;;;5048642;28;20052;-60
2022/05/06 09:10:58;;;;;;;8.17;6.83;;;;;;;;;;5051055;28;20132;-61
2022/05/06 09:13:25;;;;;;;8.70;6.57;;;;;;;;;;5052565;28;20178;-61
2022/05/06 09:18:38;;;;;;;8.70;6.47;;;;;;;;;;5052081;28;20076;-61
2022/05/06 09:21:10;;;;;;;6.23;5.63;;;;;;;;;;5050599;28;20168;-61
2022/05/06 09:23:36;;;;;;;6.82;5.57;;;;;;;;;;5051997;28;20045;-61
2022/05/06 09:26:02;;;;;;;7.77;6.30;;;;;;;;;;5050025;28;20103;-61
2022/05/06 09:28:29;;;;;;;5.30;4.80;;;;;;;;;;5049961;28;20082;-61
2022/05/06 09:31:11;;;;;;;5.70;5.10;;;;;;;;;;5051546;28;20117;-61
2022/05/06 09:33:40;;;;;;;10.20;5.00;;;;;;;;;;5051548;28;20508;-61
2022/05/06 09:36:22;;;;;;;5.20;4.70;;;;;;;;;;5050544;28;20053;-61
2022/05/06 09:39:04;;;;;;;7.10;4.43;;;;;;;;;;5050103;28;20757;-61
2022/05/06 09:41:31;;;;;;;7.35;4.95;;;;;;;;;;5051474;28;20052;-61
2022/05/06 09:44:03;;;;;;;6.20;4.77;;;;;;;;;;5050948;28;20472;-61
2022/05/06 09:46:30;;;;;;;9.57;4.95;;;;;;;;;;5051238;28;20102;-61
2022/05/06 09:48:56;;;;;;;8.70;4.53;;;;;;;;;;5049526;28;20041;-61
2022/05/06 09:51:33;;;;;;;6.97;5.50;;;;;;;;;;5050309;28;20064;-61
2022/05/06 09:53:59;;;;;;;5.20;4.05;;;;;;;;;;5050132;28;20610;-61
2022/05/06 09:56:27;;;;;;;5.55;4.28;;;;;;;;;;5050517;28;20041;-61
2022/05/06 09:58:53;;;;;;;5.95;4.10;;;;;;;;;;5050334;28;20045;-61
2022/05/06 10:01:19;;;;;;;4.68;3.80;;;;;;;;;;5050055;28;20507;-61
2022/05/06 10:03:46;;;;;;;4.72;4.22;;;;;;;;;;5030829;28;20499;-61
2022/05/06 10:06:12;;;;;;;6.35;3.30;;;;;;;;;;5046134;28;20106;-61
2022/05/06 10:08:42;;;;;;;5.35;4.05;;;;;;;;;;5050474;28;20116;-61
2022/05/06 10:11:14;;;;;;;5.78;3.25;;;;;;;;;;5051235;28;20041;-61
2022/05/06 10:13:43;;;;;;;7.18;4.30;;;;;;;;;;5050266;28;20045;-61
2022/05/06 10:16:10;;;;;;;4.55;3.90;;;;;;;;;;5050911;28;20943;-61
2022/05/06 10:18:36;;;;;;;4.13;3.67;;;;;;;;;;5050547;28;20049;-62
2022/05/06 10:21:03;;;;;;;5.95;4.50;;;;;;;;;;5049383;28;20067;-61
2022/05/06 10:23:47;;;;;;;4.50;3.65;;;;;;;;;;5051040;28;20125;-61
2022/05/06 10:26:32;;;;;;;6.43;4.32;;;;;;;;;;5048484;28;20080;-62
2022/05/06 10:34:29;;;;;;;11.27;4.93;;;;;;;;;;5039493;28;20056;-62
2022/05/06 10:36:56;;;;;;;4.90;4.40;;;;;;;;;;5040308;28;20124;-62
2022/05/06 10:39:25;;;;;;;5.97;5.13;;;;;;;;;;5044037;28;20048;-61
2022/05/06 10:42:11;;;;;;;5.75;4.10;;;;;;;;;;5042988;28;20453;-61
2022/05/06 10:44:40;;;;;;;5.13;4.03;;;;;;;;;;5050929;28;20045;-62
2022/05/06 10:47:08;;;;;;;5.13;3.88;;;;;;;;;;5035991;28;20048;-61
2022/05/06 10:49:34;;;;;;;5.68;4.93;;;;;;;;;;5044039;28;20407;-61
2022/05/06 10:52:23;;;;;;;5.88;4.50;;;;;;;;;;5042199;28;20048;-61
2022/05/06 10:54:54;;;;;;;6.28;4.50;;;;;;;;;;5042033;28;20052;-61
2022/05/06 10:57:21;;;;;;;4.70;3.58;;;;;;;;;;5039161;28;20045;-61
2022/05/06 10:59:56;;;;;;;4.82;3.60;;;;;;;;;;5037140;28;20462;-61
2022/05/06 11:02:27;;;;;;;5.50;4.00;;;;;;;;;;5041878;28;20110;-62
2022/05/06 11:04:59;;;;;;;6.00;3.92;;;;;;;;;;5049188;28;20056;-61
2022/05/06 11:07:25;;;;;;;11.23;3.75;;;;;;;;;;5037188;28;20049;-62
2022/05/06 11:09:51;;;;;;;9.93;4.55;;;;;;;;;;5038648;28;20559;-62
2022/05/06 11:12:31;;;;;;;8.25;4.05;;;;;;;;;;5048843;28;20607;-61
2022/05/06 11:14:57;;;;;;;6.13;3.75;;;;;;;;;;5038337;28;20112;-62
2022/05/06 11:17:26;;;;;;;9.73;2.80;;;;;;;;;;5037909;28;20052;-61
2022/05/06 11:19:52;;;;;;;3.90;2.85;;;;;;;;;;5028884;28;20127;-61
2022/05/06 11:22:20;;;;;;;3.00;2.40;;;;;;;;;;5047979;28;20040;-61
2022/05/06 11:24:46;;;;;;;4.20;2.88;;;;;;;;;;5047556;28;20055;-61
2022/05/06 11:27:16;;;;;;;3.25;2.33;;;;;;;;;;5052934;28;20128;-61
2022/05/06 11:29:55;;;;;;;3.00;2.30;;;;;;;;;;5046118;28;20049;-61
2022/05/06 11:32:22;;;;;;;2.88;2.17;;;;;;;;;;5042137;28;20045;-61
2022/05/06 11:34:53;;;;;;;4.70;2.40;;;;;;;;;;5041563;28;20131;-61
2022/05/06 11:37:22;;;;;;;4.40;2.47;;;;;;;;;;5047764;28;20502;-62
2022/05/06 11:39:49;;;;;;;5.85;2.55;;;;;;;;;;5045458;28;20037;-61
2022/05/06 11:42:19;;;;;;;4.13;2.92;;;;;;;;;;5038817;28;20037;-61
2022/05/06 11:47:29;;;;;;;4.13;2.72;;;;;;;;;;5045040;28;20081;-61
2022/05/06 11:49:55;;;;;;;5.10;2.70;;;;;;;;;;5038901;28;20451;-61
2022/05/06 11:52:22;;;;;;;7.70;2.78;;;;;;;;;;5044200;28;20048;-61
2022/05/06 11:54:48;;;;;;;4.95;2.92;;;;;;;;;;5035539;28;20040;-61
2022/05/06 11:57:14;;;;;;;4.32;3.05;;;;;;;;;;5042629;28;20487;-62
2022/05/06 11:59:40;;;;;;;3.83;2.10;;;;;;;;;;5066054;28;20490;-62
2022/05/06 12:02:06;;;;;;;4.50;2.38;;;;;;;;;;5049668;28;20518;-62
2022/05/06 12:04:33;;;;;;;6.60;3.50;;;;;;;;;;5042102;28;20131;-62
2022/05/06 12:06:59;;;;;;;6.00;2.80;;;;;;;;;;5060192;28;20053;-62
2022/05/06 12:09:25;;;;;;;6.22;3.30;;;;;;;;;;5060640;28;20080;-62
2022/05/06 12:12:05;;;;;;;3.85;3.03;;;;;;;;;;5028899;28;20045;-62
2022/05/06 12:14:32;;;;;;;4.78;3.20;;;;;;;;;;5029073;28;20052;-61
2022/05/06 12:17:02;;;;;;;4.68;3.78;;;;;;;;;;5043296;28;20041;-62
2022/05/06 12:19:34;;;;;;;7.85;4.25;;;;;;;;;;5027737;28;20442;-62
2022/05/06 12:22:04;;;;;;;6.43;4.25;;;;;;;;;;5027634;28;20504;-61
2022/05/06 12:24:39;;;;;;;5.00;4.10;;;;;;;;;;5048584;28;20525;-62
2022/05/06 12:27:07;;;;;;;5.10;3.85;;;;;;;;;;5047016;28;20134;-62
2022/05/06 12:29:37;;;;;;;5.43;3.70;;;;;;;;;;5032613;28;20074;-63
2022/05/06 12:32:04;;;;;;;7.50;3.95;;;;;;;;;;5048576;28;20415;-62
2022/05/06 12:34:31;;;;;;;5.20;4.22;;;;;;;;;;5047573;28;20139;-61
2022/05/06 12:37:13;;;;;;;6.10;4.50;;;;;;;;;;5047582;28;20080;-62
2022/05/06 12:39:40;;;;;;;8.73;5.53;;;;;;;;;;5047812;28;20135;-61
2022/05/06 12:42:16;;;;;;;6.20;3.80;;;;;;;;;;5048286;28;20135;-62
2022/05/06 12:44:43;;;;;;;5.75;4.78;;;;;;;;;;5046909;28;20084;-62
2022/05/06 12:49:39;;;;;;;5.40;4.15;;;;;;;;;;5048511;28;20041;-62
2022/05/06 12:50:12;;;;;;;7.53;4.40;;;;;;;;;;5047566;28;20057;-62
2022/05/06 12:52:39;;;;;;;6.85;4.70;;;;;;;;;;5048332;28;20055;-62
2022/05/06 12:55:05;;;;;;;4.82;3.63;;;;;;;;;;5047193;28;20056;-62
2022/05/06 12:57:32;;;;;;;4.88;3.28;;;;;;;;;;5048147;28;20052;-61
2022/05/06 12:59:58;;;;;;;6.15;3.20;;;;;;;;;;5046948;28;20095;-62
2022/05/06 13:02:24;;;;;;;8.90;3.03;;;;;;;;;;5048205;28;20060;-62
2022/05/06 13:04:50;;;;;;;9.88;3.45;;;;;;;;;;5045516;28;20495;-62
2022/05/06 13:07:16;;;;;;;5.35;3.63;;;;;;;;;;5047603;28;20037;-62
2022/05/06 13:09:42;;;;;;;6.43;2.83;;;;;;;;;;5047292;28;20060;-62
2022/05/06 13:12:09;;;;;;;4.40;3.10;;;;;;;;;;5047601;28;20128;-62
2022/05/06 13:14:35;;;;;;;5.47;3.00;;;;;;;;;;5048323;28;20045;-62
2022/05/06 13:17:02;;;;;;;6.63;2.78;;;;;;;;;;5047433;28;20045;-62
2022/05/06 13:19:29;;;;;;;6.65;2.53;;;;;;;;;;5048257;28;20049;-62
2022/05/06 13:21:56;;;;;;;11.48;2.25;;;;;;;;;;5047630;28;20045;-62
2022/05/06 13:24:23;;;;;;;6.50;2.95;;;;;;;;;;5047539;28;20061;-62
2022/05/06 13:26:49;;;;;;;4.28;2.67;;;;;;;;;;5047341;28;20107;-62
2022/05/06 13:29:15;;;;;;;5.07;2.47;;;;;;;;;;5047949;28;20389;-62
2022/05/06 13:31:41;;;;;;;6.55;3.85;;;;;;;;;;5047317;28;20057;-62
2022/05/06 13:34:07;;;;;;;7.32;3.97;;;;;;;;;;5047020;28;20066;-62
2022/05/06 13:36:34;;;;;;;7.13;3.50;;;;;;;;;;5046937;28;20041;-62
2022/05/06 13:39:00;;;;;;;4.95;3.58;;;;;;;;;;5047148;28;20053;-62
2022/05/06 13:41:27;;;;;;;9.02;3.92;;;;;;;;;;5047678;28;20041;-62
2022/05/06 13:43:53;;;;;;;5.43;2.78;;;;;;;;;;5047000;28;20510;-62
2022/05/06 13:46:19;;;;;;;6.40;3.50;;;;;;;;;;5047002;28;20049;-61
2022/05/06 13:48:45;;;;;;;8.35;3.30;;;;;;;;;;5047408;28;20041;-62
2022/05/06 13:51:11;;;;;;;4.25;3.22;;;;;;;;;;5047251;28;20044;-61
2022/05/06 13:53:37;;;;;;;5.72;3.90;;;;;;;;;;5047434;28;20053;-61
2022/05/06 13:59:05;;;;;;;6.18;3.65;;;;;;;;;;5048493;28;20060;-61
2022/05/06 14:01:31;;;;;;;8.70;3.15;;;;;;;;;;5051086;28;20067;-61
2022/05/06 14:03:57;;;;;;;4.97;3.17;;;;;;;;;;5049079;28;20127;-62
2022/05/06 14:06:23;;;;;;;6.88;3.20;;;;;;;;;;5050046;28;20125;-61
2022/05/06 14:08:49;;;;;;;6.70;3.50;;;;;;;;;;5050488;28;20127;-62
2022/05/06 14:11:16;;;;;;;5.05;3.40;;;;;;;;;;5050893;28;20498;-62
2022/05/06 14:13:42;;;;;;;6.13;3.60;;;;;;;;;;5048868;28;20051;-61
2022/05/06 14:16:09;;;;;;;6.57;3.15;;;;;;;;;;5049417;28;20045;-61
2022/05/06 14:18:35;;;;;;;6.00;3.10;;;;;;;;;;5050033;28;20049;-61
2022/05/06 14:21:01;;;;;;;5.30;3.40;;;;;;;;;;5048326;28;20045;-61
2022/05/06 14:23:27;;;;;;;7.15;3.22;;;;;;;;;;5031068;28;20044;-61
2022/05/06 14:25:54;;;;;;;7.45;2.40;;;;;;;;;;5049289;28;20464;-61
2022/05/06 14:28:20;;;;;;;6.10;3.50;;;;;;;;;;5050180;28;20041;-62
2022/05/06 14:30:46;;;;;;;4.88;3.65;;;;;;;;;;5044677;28;20052;-62
2022/05/06 14:33:13;;;;;;;6.35;4.10;;;;;;;;;;5050985;28;20041;-62
2022/05/06 14:35:40;;;;;;;6.68;4.25;;;;;;;;;;5048331;28;21411;-61
2022/05/06 14:38:06;;;;;;;9.23;5.03;;;;;;;;;;5040630;28;20037;-61
2022/05/06 14:40:32;;;;;;;8.15;4.18;;;;;;;;;;5038760;28;20148;-61
2022/05/06 14:42:58;;;;;;;7.68;4.75;;;;;;;;;;5039239;28;20045;-62
2022/05/06 14:45:25;;;;;;;9.88;5.10;;;;;;;;;;5039251;28;20041;-61
2022/05/06 14:47:51;;;;;;;7.43;5.43;;;;;;;;;;5035549;28;20050;-62
2022/05/06 14:50:17;;;;;;;8.18;4.53;;;;;;;;;;5049473;28;20053;-61
2022/05/06 14:52:43;;;;;;;6.70;5.53;;;;;;;;;;5040990;28;20492;-61
2022/05/06 14:55:09;;;;;;;10.18;5.60;;;;;;;;;;5030742;28;20053;-62
2022/05/06 14:57:36;;;;;;;9.40;5.10;;;;;;;;;;5048854;28;20037;-62
2022/05/06 15:00:06;;;;;;;7.15;5.97;;;;;;;;;;5047529;28;20056;-61
2022/05/06 15:02:33;;;;;;;7.00;6.22;;;;;;;;;;5050387;28;20059;-62
2022/05/06 15:04:59;;;;;;;8.25;6.32;;;;;;;;;;5049243;28;20048;-62
2022/05/06 15:07:25;;;;;;;8.88;6.32;;;;;;;;;;5033977;28;20107;-61
2022/05/06 15:09:51;;;;;;;8.32;5.75;;;;;;;;;;5030077;28;20061;-61